createdAt,value
2022-09-28T00:06:37.209Z,100
2022-09-28T00:35:31.824Z,100
2022-09-28T01:04:30.520Z,100
2022-09-28T01:33:06.773Z,100
2022-09-28T02:02:02.347Z,100
2022-09-28T02:30:58.797Z,100
2022-09-28T02:59:50.473Z,100
2022-09-28T03:28:57.073Z,100
2022-09-28T03:57:44.411Z,100
2022-09-28T04:26:34.836Z,100
2022-09-28T04:55:28.196Z,100
2022-09-28T05:24:11.876Z,100
2022-09-28T05:53:02.474Z,100
2022-09-28T06:21:45.936Z,100
2022-09-28T06:50:44.767Z,100
2022-09-28T07:19:42.416Z,100
2022-09-28T07:48:30.251Z,100
2022-09-28T08:17:36.022Z,95.21
2022-09-28T08:46:29.739Z,92.69
2022-09-28T09:15:28.771Z,89.57
2022-09-28T11:42:29.501Z,74.38
2022-09-28T12:10:46.631Z,74.93
2022-09-28T12:39:27.418Z,68.59
2022-09-28T13:07:12.779Z,66.98
2022-09-28T13:35:24.803Z,66.28
2022-09-28T14:04:15.261Z,65.96
2022-09-28T14:32:20.081Z,76.87
2022-09-28T15:00:50.400Z,74.11
2022-09-28T15:29:05.771Z,78.69
2022-09-28T15:57:15.843Z,81.15
2022-09-28T16:25:38.621Z,82.94
2022-09-28T16:53:50.568Z,84.5
2022-09-28T17:22:08.153Z,85.6
2022-09-28T17:51:01.258Z,89.49
2022-09-28T18:19:53.048Z,90
2022-09-28T18:48:43.269Z,93
2022-09-28T19:17:27.924Z,93.85
2022-09-28T19:46:21.303Z,92.57
2022-09-28T20:15:14.533Z,91.77
2022-09-28T20:44:14.237Z,93.9
2022-09-28T21:13:06.231Z,93.99
2022-09-28T21:42:05.755Z,93.88
2022-09-28T22:10:57.302Z,95.57
2022-09-28T22:39:52.847Z,95.79
2022-09-28T23:08:03.836Z,96.99
2022-09-28T23:36:22.084Z,97.52
